ORD - Chicago O'hare Intl

Pirep is a free, collaborative database of all public and private airports located within the United States. All pilots are welcome to contribute, edit, and improve any airport they have local knowledge about, no registration required.
Are you familiar with this airport? Help out other pilots by adding your local knowledge.
Uploaded photos will be licensed under a CC BY-SA 4.0 license. Please only upload photos you have the rights to use.
Tags
Public
Undocu­mented
METAR / TAF
Edit Tags
Food
Camping
Lodging
Car Rental
Bicycles
Swimming
Golfing
Fishing
Hot Springs
Museum
Flying Clubs
Airpark
Upcoming Events
No upcoming events. Is anything happening here soon?
*
*
*

Where exactly on/near the airport is this event taking place?

Is there a webpage with more information for this event?

Who should be contacted for more information?

What is this event all about?

Repeat every
Description
Transient Parking
Fuel Location
Landing & Tie-down Fees
Crew Car Availability
Flying Clubs
WiFi Access
Airport Statistics
Location: Chicago, IL
Elevation: 680ft
Sectional: Chicago
Activation date: Feb 1944
Fuel: 100LL, A (prices)
Runway 10L/28R: 13,000ft
Runway 09R/27L: 11,260ft
Runway 09C/27C: 11,245ft
Runway 10C/28C: 10,800ft
Runway 04R/22L: 8,075ft
Runway 04L/22R: 7,500ft
Runway 09L/27R: 7,500ft
Runway 10R/28L: 7,500ft
Runway H1: 200ft
Runway 10X: 0ft
Access: Open to the public
Current Weather — VFR
  • Weather data is strictly informational and not for flight planning purposes.
  • METAR
    2024-06-16 17:51:00 CDT
    Ceiling Wind Temperature Dewpoint Weather Visbility
    21,000ft 250° @ 15kt, gusts 27kt 82°F 62°F N/A 10SM
    Clouds: Few @ 6,000ft, Scattered @ 7,000ft, Scattered @ 11,000ft, Broken @ 21,000ft
    Raw: KORD 162251Z 25015G27KT 10SM FEW060 SCT070 SCT110 BKN210 BKN250 28/17 A2985 RMK AO2 PK WND 25041/2208 RAB19E31 SLP101 CB DSNT E-SE MOV E P0001 T02780167
  • TAF
    2024-06-16 18:00:00 CDT – 2024-06-16 20:00:00 CDT
    Ceiling Wind Weather Visbility
    4,000ft 230° @ 15kt, gusts 25kt Light rain showers, thunderstorm in vicinity 6SM
    Clouds: Broken @ 4,000ft, Broken @ 10,000ft
    Raw: KORD 162251Z 1623/1724 23015G25KT 6SM -SHRA VCTS BKN040CB BKN100 FM170100 19009KT P6SM SCT080 BKN250 FM171800 20013G23KT P6SM BKN050 BKN250
  • TAF
    2024-06-16 20:00:00 CDT – 2024-06-17 13:00:00 CDT
    Ceiling Wind Weather Visbility
    25,000ft 190° @ 9kt N/A 6SM
    Clouds: Scattered @ 8,000ft, Broken @ 25,000ft
    Raw: KORD 162251Z 1623/1724 23015G25KT 6SM -SHRA VCTS BKN040CB BKN100 FM170100 19009KT P6SM SCT080 BKN250 FM171800 20013G23KT P6SM BKN050 BKN250
  • TAF
    2024-06-17 13:00:00 CDT – 2024-06-17 19:00:00 CDT
    Ceiling Wind Weather Visbility
    5,000ft 200° @ 13kt, gusts 23kt N/A 6SM
    Clouds: Broken @ 5,000ft, Broken @ 25,000ft
    Raw: KORD 162251Z 1623/1724 23015G25KT 6SM -SHRA VCTS BKN040CB BKN100 FM170100 19009KT P6SM SCT080 BKN250 FM171800 20013G23KT P6SM BKN050 BKN250
Click/tap to add an annotation marker to the map
Airport Webcams
No webcams added yet.
Direct links to live image URLs will be displayed inline on this page. URLs to separate webpages will be linked to.
URL:
Direct links to live image URLs will be displayed inline on this page. URLs to separate webpages will be linked to.
URL:
Remarks
  • And du page co.
  • Noise abatement proc in effect fm 2200 to 0700; ctc amgr - 773-686-2255.
  • Birds on & invof arpt; pyrotechnics & bird cannons in use.
  • Acft with wingspan greater than 214 ft rqr 48 hrs ppr - 773-686-2255.
  • See lnd & hold short ops section.
Comments
Leave a comment What was your experience like at this airport?